sensor_id;sensor_type;location;lat;lon;timestamp;pressure;altitude;pressure_sealevel;temperature;humidity
60087;BME280;45960;53.630;55.972;2023-02-21T00:00:15;98608.31;;;-5.24;75.13
60087;BME280;45960;53.630;55.972;2023-02-21T00:01:34;98601.38;;;-5.25;75.41
60087;BME280;45960;53.630;55.972;2023-02-21T00:02:53;98597.03;;;-5.24;75.40
60087;BME280;45960;53.630;55.972;2023-02-21T00:04:13;98601.28;;;-5.22;75.26
60087;BME280;45960;53.630;55.972;2023-02-21T00:05:32;98599.59;;;-5.23;75.44
60087;BME280;45960;53.630;55.972;2023-02-21T00:06:52;98600.44;;;-5.22;75.52
60087;BME280;45960;53.630;55.972;2023-02-21T00:08:11;98598.69;;;-5.22;75.68
60087;BME280;45960;53.630;55.972;2023-02-21T00:09:31;98584.94;;;-5.27;75.69
60087;BME280;45960;53.630;55.972;2023-02-21T00:10:50;98580.44;;;-5.20;75.85
60087;BME280;45960;53.630;55.972;2023-02-21T00:12:09;98583.81;;;-5.17;75.65
60087;BME280;45960;53.630;55.972;2023-02-21T00:13:29;98582.84;;;-5.12;75.43
60087;BME280;45960;53.630;55.972;2023-02-21T00:14:48;98590.53;;;-5.09;75.64
60087;BME280;45960;53.630;55.972;2023-02-21T00:16:07;98581.72;;;-5.05;75.56
60087;BME280;45960;53.630;55.972;2023-02-21T00:17:27;98580.75;;;-5.01;75.79
60087;BME280;45960;53.630;55.972;2023-02-21T00:18:46;98572.88;;;-5.00;75.50
60087;BME280;45960;53.630;55.972;2023-02-21T00:20:06;98577.97;;;-4.95;75.25
60087;BME280;45960;53.630;55.972;2023-02-21T00:21:29;98577.97;;;-4.95;75.19
60087;BME280;45960;53.630;55.972;2023-02-21T00:22:48;98571.03;;;-4.96;75.58
60087;BME280;45960;53.630;55.972;2023-02-21T00:24:11;98574.47;;;-4.94;75.48
60087;BME280;45960;53.630;55.972;2023-02-21T00:25:31;98571.84;;;-4.94;75.51
60087;BME280;45960;53.630;55.972;2023-02-21T00:26:51;98570.94;;;-4.93;75.58
60087;BME280;45960;53.630;55.972;2023-02-21T00:28:10;98562.25;;;-4.92;75.85
60087;BME280;45960;53.630;55.972;2023-02-21T00:29:30;98563.13;;;-4.93;75.72
60087;BME280;45960;53.630;55.972;2023-02-21T00:30:49;98558.72;;;-4.91;75.70
60087;BME280;45960;53.630;55.972;2023-02-21T00:32:09;98555.94;;;-4.85;75.64
60087;BME280;45960;53.630;55.972;2023-02-21T00:33:28;98557.56;;;-4.81;75.93
60087;BME280;45960;53.630;55.972;2023-02-21T00:34:48;98560.06;;;-4.78;75.64
60087;BME280;45960;53.630;55.972;2023-02-21T00:36:07;98556.56;;;-4.77;75.89
60087;BME280;45960;53.630;55.972;2023-02-21T00:37:27;98565.22;;;-4.76;75.75
60087;BME280;45960;53.630;55.972;2023-02-21T00:38:47;98567.91;;;-4.79;76.14
60087;BME280;45960;53.630;55.972;2023-02-21T00:40:09;98559.25;;;-4.80;76.31
60087;BME280;45960;53.630;55.972;2023-02-21T00:41:29;98559.25;;;-4.80;76.10
60087;BME280;45960;53.630;55.972;2023-02-21T00:42:48;98558.38;;;-4.79;76.49
60087;BME280;45960;53.630;55.972;2023-02-21T00:44:08;98546.44;;;-4.86;76.53
60087;BME280;45960;53.630;55.972;2023-02-21T00:45:28;98554.97;;;-4.81;76.50
60087;BME280;45960;53.630;55.972;2023-02-21T00:46:47;98552.25;;;-4.78;76.55
60087;BME280;45960;53.630;55.972;2023-02-21T00:48:07;98534.88;;;-4.77;76.72
60087;BME280;45960;53.630;55.972;2023-02-21T00:49:26;98545.06;;;-4.69;76.37
60087;BME280;45960;53.630;55.972;2023-02-21T00:50:45;98538.00;;;-4.66;76.19
60087;BME280;45960;53.630;55.972;2023-02-21T00:52:05;98537.94;;;-4.64;76.13
60087;BME280;45960;53.630;55.972;2023-02-21T00:53:24;98535.34;;;-4.64;76.10
60087;BME280;45960;53.630;55.972;2023-02-21T00:54:44;98532.75;;;-4.64;76.13
60087;BME280;45960;53.630;55.972;2023-02-21T00:56:04;98542.25;;;-4.63;76.03
60087;BME280;45960;53.630;55.972;2023-02-21T00:57:24;98534.41;;;-4.62;76.48
60087;BME280;45960;53.630;55.972;2023-02-21T00:58:44;98533.53;;;-4.62;76.26
60087;BME280;45960;53.630;55.972;2023-02-21T01:00:05;98536.09;;;-4.61;76.18
60087;BME280;45960;53.630;55.972;2023-02-21T01:01:24;98537.03;;;-4.63;76.23
60087;BME280;45960;53.630;55.972;2023-02-21T01:02:44;98533.53;;;-4.62;76.55
60087;BME280;45960;53.630;55.972;2023-02-21T01:04:05;98539.63;;;-4.62;76.28
60087;BME280;45960;53.630;55.972;2023-02-21T01:05:24;98533.44;;;-4.59;76.26
60087;BME280;45960;53.630;55.972;2023-02-21T01:06:44;98528.41;;;-4.65;76.23
60087;BME280;45960;53.630;55.972;2023-02-21T01:08:04;98530.88;;;-4.61;76.25
60087;BME280;45960;53.630;55.972;2023-02-21T01:09:23;98517.03;;;-4.63;76.36
60087;BME280;45960;53.630;55.972;2023-02-21T01:10:42;98526.41;;;-4.57;76.29
60087;BME280;45960;53.630;55.972;2023-02-21T01:12:02;98531.53;;;-4.54;76.30
60087;BME280;45960;53.630;55.972;2023-02-21T01:13:22;98524.53;;;-4.52;76.23
60087;BME280;45960;53.630;55.972;2023-02-21T01:14:41;98528.88;;;-4.53;76.29
60087;BME280;45960;53.630;55.972;2023-02-21T01:16:01;98528.03;;;-4.53;76.12
60087;BME280;45960;53.630;55.972;2023-02-21T01:17:20;98533.03;;;-4.47;76.18
60087;BME280;45960;53.630;55.972;2023-02-21T01:18:40;98532.84;;;-4.41;76.15
60087;BME280;45960;53.630;55.972;2023-02-21T01:20:00;98531.16;;;-4.42;76.13
60087;BME280;45960;53.630;55.972;2023-02-21T01:21:19;98529.31;;;-4.40;76.15
60087;BME280;45960;53.630;55.972;2023-02-21T01:22:39;98525.72;;;-4.36;75.99
60087;BME280;45960;53.630;55.972;2023-02-21T01:23:59;98524.81;;;-4.35;76.06
60087;BME280;45960;53.630;55.972;2023-02-21T01:25:18;98528.19;;;-4.31;75.68
60087;BME280;45960;53.630;55.972;2023-02-21T01:26:38;98518.59;;;-4.31;75.84
60087;BME280;45960;53.630;55.972;2023-02-21T01:27:58;98516.00;;;-4.31;75.92
60087;BME280;45960;53.630;55.972;2023-02-21T01:29:17;98515.09;;;-4.30;75.98
60087;BME280;45960;53.630;55.972;2023-02-21T01:30:37;98518.50;;;-4.28;76.13
60087;BME280;45960;53.630;55.972;2023-02-21T01:31:56;98512.44;;;-4.28;75.94
60087;BME280;45960;53.630;55.972;2023-02-21T01:33:15;98514.88;;;-4.23;76.18
60087;BME280;45960;53.630;55.972;2023-02-21T01:34:35;98511.28;;;-4.19;76.11
60087;BME280;45960;53.630;55.972;2023-02-21T01:35:54;98507.97;;;-4.24;75.96
60087;BME280;45960;53.630;55.972;2023-02-21T01:37:13;98512.06;;;-4.17;76.19
60087;BME280;45960;53.630;55.972;2023-02-21T01:38:34;98513.72;;;-4.15;76.16
60087;BME280;45960;53.630;55.972;2023-02-21T01:39:54;98514.59;;;-4.14;76.01
60087;BME280;45960;53.630;55.972;2023-02-21T01:41:15;98505.16;;;-4.18;76.05
60087;BME280;45960;53.630;55.972;2023-02-21T01:42:37;98499.81;;;-4.15;75.94
60087;BME280;45960;53.630;55.972;2023-02-21T01:46:41;98496.38;;;-4.16;75.84
60087;BME280;45960;53.630;55.972;2023-02-21T01:48:01;98497.09;;;-4.12;76.09
60087;BME280;45960;53.630;55.972;2023-02-21T01:49:20;98488.41;;;-4.11;75.93
60087;BME280;45960;53.630;55.972;2023-02-21T01:50:39;98497.00;;;-4.09;75.73
60087;BME280;45960;53.630;55.972;2023-02-21T01:51:59;98483.91;;;-4.08;75.75
60087;BME280;45960;53.630;55.972;2023-02-21T01:53:21;98485.59;;;-4.07;75.78
60087;BME280;45960;53.630;55.972;2023-02-21T01:54:46;98484.66;;;-4.04;75.69
60087;BME280;45960;53.630;55.972;2023-02-21T01:56:08;98475.88;;;-4.01;75.49
60087;BME280;45960;53.630;55.972;2023-02-21T01:57:28;98472.38;;;-4.00;75.75
60087;BME280;45960;53.630;55.972;2023-02-21T01:58:52;98474.75;;;-3.94;75.38
60087;BME280;45960;53.630;55.972;2023-02-21T02:00:14;98469.53;;;-3.94;75.40
60087;BME280;45960;53.630;55.972;2023-02-21T02:03:18;98452.88;;;-3.90;75.14
60087;BME280;45960;53.630;55.972;2023-02-21T02:04:40;98458.66;;;-3.82;75.19
60087;BME280;45960;53.630;55.972;2023-02-21T02:06:03;98466.44;;;-3.80;75.22
60087;BME280;45960;53.630;55.972;2023-02-21T02:07:25;98457.81;;;-3.83;75.11
60087;BME280;45960;53.630;55.972;2023-02-21T02:08:45;98455.09;;;-3.79;75.03
60087;BME280;45960;53.630;55.972;2023-02-21T02:10:06;98457.69;;;-3.79;75.14
60087;BME280;45960;53.630;55.972;2023-02-21T02:19:06;98433.09;;;-3.72;75.15
60087;BME280;45960;53.630;55.972;2023-02-21T02:22:07;98429.59;;;-3.73;75.03
60087;BME280;45960;53.630;55.972;2023-02-21T02:25:00;98435.72;;;-3.72;75.03
60087;BME280;45960;53.630;55.972;2023-02-21T02:30:05;98426.28;;;-3.76;75.62
60087;BME280;45960;53.630;55.972;2023-02-21T02:31:45;98426.28;;;-3.76;75.27
60087;BME280;45960;53.630;55.972;2023-02-21T02:39:38;98427.75;;;-3.69;75.08
60087;BME280;45960;53.630;55.972;2023-02-21T02:41:37;98418.09;;;-3.67;75.21
60087;BME280;45960;53.630;55.972;2023-02-21T02:44:05;98412.72;;;-3.63;75.22
60087;BME280;45960;53.630;55.972;2023-02-21T02:45:29;98412.72;;;-3.63;75.14
60087;BME280;45960;53.630;55.972;2023-02-21T02:46:37;98403.91;;;-3.60;75.27
60087;BME280;45960;53.630;55.972;2023-02-21T02:47:42;98406.41;;;-3.57;75.17
60087;BME280;45960;53.630;55.972;2023-02-21T02:48:54;98406.28;;;-3.54;75.22
60087;BME280;45960;53.630;55.972;2023-02-21T02:49:58;98403.56;;;-3.51;75.26
60087;BME280;45960;53.630;55.972;2023-02-21T02:51:05;98399.94;;;-3.47;75.23
60087;BME280;45960;53.630;55.972;2023-02-21T02:52:09;98399.00;;;-3.46;75.17
60087;BME280;45960;53.630;55.972;2023-02-21T02:53:11;98400.69;;;-3.45;75.20
60087;BME280;45960;53.630;55.972;2023-02-21T02:54:16;98397.25;;;-3.45;75.21
60087;BME280;45960;53.630;55.972;2023-02-21T02:55:49;98400.69;;;-3.45;75.16
60087;BME280;45960;53.630;55.972;2023-02-21T02:56:52;98396.28;;;-3.43;75.35
60087;BME280;45960;53.630;55.972;2023-02-21T02:57:54;98396.25;;;-3.41;75.17
60087;BME280;45960;53.630;55.972;2023-02-21T02:58:59;98403.03;;;-3.37;75.27
60087;BME280;45960;53.630;55.972;2023-02-21T03:00:01;98391.78;;;-3.39;75.37
60087;BME280;45960;53.630;55.972;2023-02-21T03:09:45;98374.13;;;-3.10;74.78
60087;BME280;45960;53.630;55.972;2023-02-21T03:13:50;98374.00;;;-3.07;74.47
60087;BME280;45960;53.630;55.972;2023-02-21T03:15:07;98364.28;;;-3.04;74.69
60087;BME280;45960;53.630;55.972;2023-02-21T03:16:29;98368.53;;;-3.01;74.67
60087;BME280;45960;53.630;55.972;2023-02-21T03:17:33;98371.94;;;-2.99;74.78
60087;BME280;45960;53.630;55.972;2023-02-21T03:18:43;98360.50;;;-2.97;74.38
60087;BME280;45960;53.630;55.972;2023-02-21T03:19:47;98359.59;;;-2.96;74.54
60087;BME280;45960;53.630;55.972;2023-02-21T03:20:55;98355.16;;;-2.94;74.47
60087;BME280;45960;53.630;55.972;2023-02-21T03:22:12;98362.06;;;-2.93;74.61
60087;BME280;45960;53.630;55.972;2023-02-21T03:23:17;98355.16;;;-2.94;74.54
60087;BME280;45960;53.630;55.972;2023-02-21T03:24:20;98357.63;;;-2.90;74.67
60087;BME280;45960;53.630;55.972;2023-02-21T03:25:23;98353.31;;;-2.92;74.80
60087;BME280;45960;53.630;55.972;2023-02-21T03:26:31;98349.66;;;-2.87;74.75
60087;BME280;45960;53.630;55.972;2023-02-21T03:27:46;98354.91;;;-2.87;74.83
60087;BME280;45960;53.630;55.972;2023-02-21T03:28:55;98357.31;;;-2.83;74.60
60087;BME280;45960;53.630;55.972;2023-02-21T03:30:01;98354.50;;;-2.78;74.39
60087;BME280;45960;53.630;55.972;2023-02-21T03:31:04;98351.00;;;-2.77;74.53
60087;BME280;45960;53.630;55.972;2023-02-21T03:32:26;98349.94;;;-2.73;74.67
60087;BME280;45960;53.630;55.972;2023-02-21T03:33:30;98353.41;;;-2.73;74.73
60087;BME280;45960;53.630;55.972;2023-02-21T03:34:31;98345.63;;;-2.74;74.67
60087;BME280;45960;53.630;55.972;2023-02-21T03:35:33;98347.44;;;-2.76;74.65
60087;BME280;45960;53.630;55.972;2023-02-21T03:36:36;98351.84;;;-2.77;74.59
60087;BME280;45960;53.630;55.972;2023-02-21T03:37:41;98344.97;;;-2.79;74.91
60087;BME280;45960;53.630;55.972;2023-02-21T03:38:43;98337.97;;;-2.79;74.84
60087;BME280;45960;53.630;55.972;2023-02-21T03:39:44;98341.38;;;-2.77;75.07
60087;BME280;45960;53.630;55.972;2023-02-21T03:40:46;98336.16;;;-2.77;74.86
60087;BME280;45960;53.630;55.972;2023-02-21T03:41:47;98326.69;;;-2.79;74.98
60087;BME280;45960;53.630;55.972;2023-02-21T03:42:49;98329.03;;;-2.73;75.23
60087;BME280;45960;53.630;55.972;2023-02-21T03:43:52;98332.28;;;-2.68;75.07
60087;BME280;45960;53.630;55.972;2023-02-21T03:44:54;98331.22;;;-2.64;75.25
60087;BME280;45960;53.630;55.972;2023-02-21T03:45:56;98336.31;;;-2.61;75.11
60087;BME280;45960;53.630;55.972;2023-02-21T03:46:57;98327.47;;;-2.57;74.98
60087;BME280;45960;53.630;55.972;2023-02-21T03:47:59;98320.41;;;-2.55;74.93
60087;BME280;45960;53.630;55.972;2023-02-21T03:49:00;98331.56;;;-2.51;75.16
60087;BME280;45960;53.630;55.972;2023-02-21T03:50:03;98333.19;;;-2.49;75.12
60087;BME280;45960;53.630;55.972;2023-02-21T03:51:11;98325.22;;;-2.45;75.09
60087;BME280;45960;53.630;55.972;2023-02-21T03:52:12;98328.50;;;-2.40;75.28
60087;BME280;45960;53.630;55.972;2023-02-21T03:53:14;98326.50;;;-2.35;75.16
60087;BME280;45960;53.630;55.972;2023-02-21T03:54:17;98319.38;;;-2.32;74.78
60087;BME280;45960;53.630;55.972;2023-02-21T03:55:22;98324.53;;;-2.30;74.74
60087;BME280;45960;53.630;55.972;2023-02-21T03:56:24;98325.19;;;-2.25;74.62
60087;BME280;45960;53.630;55.972;2023-02-21T03:57:48;98322.44;;;-2.22;74.68
60087;BME280;45960;53.630;55.972;2023-02-21T03:58:49;98324.00;;;-2.18;74.67
60087;BME280;45960;53.630;55.972;2023-02-21T03:59:50;98323.88;;;-2.15;74.54
60087;BME280;45960;53.630;55.972;2023-02-21T04:00:52;98320.31;;;-2.14;74.27
60087;BME280;45960;53.630;55.972;2023-02-21T04:01:54;98327.28;;;-2.13;74.55
60087;BME280;45960;53.630;55.972;2023-02-21T04:02:56;98325.56;;;-2.14;74.57
60087;BME280;45960;53.630;55.972;2023-02-21T04:04:05;98323.88;;;-2.15;74.43
60087;BME280;45960;53.630;55.972;2023-02-21T04:05:06;98327.38;;;-2.16;74.43
60087;BME280;45960;53.630;55.972;2023-02-21T04:06:07;98329.09;;;-2.15;74.63
60087;BME280;45960;53.630;55.972;2023-02-21T04:07:09;98320.31;;;-2.14;74.63
60087;BME280;45960;53.630;55.972;2023-02-21T04:08:11;98329.00;;;-2.13;74.55
60087;BME280;45960;53.630;55.972;2023-02-21T04:09:12;98328.81;;;-2.09;74.81
60087;BME280;45960;53.630;55.972;2023-02-21T04:10:13;98327.75;;;-2.05;74.64
60087;BME280;45960;53.630;55.972;2023-02-21T04:11:21;98327.69;;;-2.03;74.59
60087;BME280;45960;53.630;55.972;2023-02-21T04:12:25;98328.53;;;-2.03;74.52
60087;BME280;45960;53.630;55.972;2023-02-21T04:13:26;98316.38;;;-2.04;74.47
60087;BME280;45960;53.630;55.972;2023-02-21T04:14:28;98320.03;;;-2.08;74.64
60087;BME280;45960;53.630;55.972;2023-02-21T04:15:29;98321.75;;;-2.07;74.63
60087;BME280;45960;53.630;55.972;2023-02-21T04:16:31;98318.22;;;-2.06;74.61
60087;BME280;45960;53.630;55.972;2023-02-21T04:17:32;98326.69;;;-2.00;74.65
60087;BME280;45960;53.630;55.972;2023-02-21T04:18:34;98319.63;;;-1.98;74.77
60087;BME280;45960;53.630;55.972;2023-02-21T04:19:36;98324.88;;;-1.98;74.92
60087;BME280;45960;53.630;55.972;2023-02-21T04:20:39;98315.44;;;-2.03;74.79
60087;BME280;45960;53.630;55.972;2023-02-21T04:21:44;98324.00;;;-1.99;74.77
60087;BME280;45960;53.630;55.972;2023-02-21T04:22:45;98323.00;;;-1.96;74.76
60087;BME280;45960;53.630;55.972;2023-02-21T04:23:47;98315.09;;;-1.95;74.90
60087;BME280;45960;53.630;55.972;2023-02-21T04:24:49;98315.09;;;-1.95;74.79
60087;BME280;45960;53.630;55.972;2023-02-21T04:25:52;98309.16;;;-1.98;74.86
60087;BME280;45960;53.630;55.972;2023-02-21T04:27:00;98315.81;;;-1.91;74.94
60087;BME280;45960;53.630;55.972;2023-02-21T04:28:04;98320.75;;;-1.85;74.90
60087;BME280;45960;53.630;55.972;2023-02-21T04:29:05;98313.69;;;-1.83;74.83
60087;BME280;45960;53.630;55.972;2023-02-21T04:30:08;98303.34;;;-1.86;74.94
60087;BME280;45960;53.630;55.972;2023-02-21T04:31:09;98304.19;;;-1.86;74.85
60087;BME280;45960;53.630;55.972;2023-02-21T04:32:11;98299.66;;;-1.82;74.89
60087;BME280;45960;53.630;55.972;2023-02-21T04:33:12;98301.38;;;-1.81;74.93
60087;BME280;45960;53.630;55.972;2023-02-21T04:34:13;98304.63;;;-1.76;74.77
60087;BME280;45960;53.630;55.972;2023-02-21T04:35:17;98297.53;;;-1.74;74.83
60087;BME280;45960;53.630;55.972;2023-02-21T04:36:19;98295.72;;;-1.72;74.76
60087;BME280;45960;53.630;55.972;2023-02-21T04:37:21;98292.31;;;-1.74;74.93
60087;BME280;45960;53.630;55.972;2023-02-21T04:38:22;98294.16;;;-1.76;74.81
60087;BME280;45960;53.630;55.972;2023-02-21T04:39:23;98288.94;;;-1.76;75.10
60087;BME280;45960;53.630;55.972;2023-02-21T04:40:24;98291.53;;;-1.76;75.14
60087;BME280;45960;53.630;55.972;2023-02-21T04:41:25;98288.78;;;-1.73;74.97
60087;BME280;45960;53.630;55.972;2023-02-21T04:42:27;98286.94;;;-1.71;75.02
60087;BME280;45960;53.630;55.972;2023-02-21T04:43:29;98287.78;;;-1.70;75.43
60087;BME280;45960;53.630;55.972;2023-02-21T04:44:30;98292.19;;;-1.71;75.11
60087;BME280;45960;53.630;55.972;2023-02-21T04:45:31;98286.06;;;-1.71;75.24
60087;BME280;45960;53.630;55.972;2023-02-21T04:46:32;98294.72;;;-1.69;75.17
60087;BME280;45960;53.630;55.972;2023-02-21T04:47:33;98292.03;;;-1.68;75.29
60087;BME280;45960;53.630;55.972;2023-02-21T04:48:34;98282.31;;;-1.66;75.29
60087;BME280;45960;53.630;55.972;2023-02-21T04:49:35;98277.88;;;-1.64;75.26
60087;BME280;45960;53.630;55.972;2023-02-21T04:50:36;98272.41;;;-1.59;75.15
60087;BME280;45960;53.630;55.972;2023-02-21T04:51:38;98271.44;;;-1.56;75.26
60087;BME280;45960;53.630;55.972;2023-02-21T04:52:39;98273.94;;;-1.55;75.22
60087;BME280;45960;53.630;55.972;2023-02-21T04:53:41;98269.56;;;-1.54;75.42
60087;BME280;45960;53.630;55.972;2023-02-21T04:54:41;98275.88;;;-1.59;75.72
60087;BME280;45960;53.630;55.972;2023-02-21T04:55:43;98273.31;;;-1.60;75.86
60087;BME280;45960;53.630;55.972;2023-02-21T04:56:44;98273.25;;;-1.59;76.03
60087;BME280;45960;53.630;55.972;2023-02-21T04:57:45;98271.28;;;-1.53;76.06
60087;BME280;45960;53.630;55.972;2023-02-21T04:58:46;98256.31;;;-1.51;75.89
60087;BME280;45960;53.630;55.972;2023-02-21T04:59:48;98250.94;;;-1.48;75.77
60087;BME280;45960;53.630;55.972;2023-02-21T05:00:49;98256.94;;;-1.46;75.87
60087;BME280;45960;53.630;55.972;2023-02-21T05:01:50;98250.81;;;-1.45;75.77
60087;BME280;45960;53.630;55.972;2023-02-21T05:02:51;98250.66;;;-1.42;75.52
60087;BME280;45960;53.630;55.972;2023-02-21T05:03:52;98255.72;;;-1.39;75.49
60087;BME280;45960;53.630;55.972;2023-02-21T05:04:53;98246.94;;;-1.38;75.42
60087;BME280;45960;53.630;55.972;2023-02-21T05:05:54;98252.03;;;-1.35;75.39
60087;BME280;45960;53.630;55.972;2023-02-21T05:06:58;98252.03;;;-1.35;75.33
60087;BME280;45960;53.630;55.972;2023-02-21T05:07:59;98254.66;;;-1.35;75.34
60087;BME280;45960;53.630;55.972;2023-02-21T05:09:00;98244.09;;;-1.33;75.34
60087;BME280;45960;53.630;55.972;2023-02-21T05:10:01;98253.44;;;-1.28;75.22
60087;BME280;45960;53.630;55.972;2023-02-21T05:11:05;98254.97;;;-1.24;75.13
60087;BME280;45960;53.630;55.972;2023-02-21T05:12:08;98255.75;;;-1.22;75.29
60087;BME280;45960;53.630;55.972;2023-02-21T05:13:12;98251.13;;;-1.17;75.17
60087;BME280;45960;53.630;55.972;2023-02-21T05:14:13;98251.13;;;-1.17;75.16
60087;BME280;45960;53.630;55.972;2023-02-21T05:15:14;98250.19;;;-1.16;75.04
60087;BME280;45960;53.630;55.972;2023-02-21T05:16:16;98247.41;;;-1.13;75.14
60087;BME280;45960;53.630;55.972;2023-02-21T05:17:17;98243.72;;;-1.08;74.92
60087;BME280;45960;53.630;55.972;2023-02-21T05:18:18;98243.56;;;-1.05;75.05
60087;BME280;45960;53.630;55.972;2023-02-21T05:19:22;98239.84;;;-1.01;75.26
60087;BME280;45960;53.630;55.972;2023-02-21T05:20:29;98237.84;;;-0.96;75.24
60087;BME280;45960;53.630;55.972;2023-02-21T05:21:34;98236.69;;;-0.91;75.02
60087;BME280;45960;53.630;55.972;2023-02-21T05:22:38;98240.94;;;-0.88;74.96
60087;BME280;45960;53.630;55.972;2023-02-21T05:23:40;98243.50;;;-0.86;75.07
60087;BME280;45960;53.630;55.972;2023-02-21T05:24:42;98234.00;;;-0.89;74.79
60087;BME280;45960;53.630;55.972;2023-02-21T05:25:44;98241.53;;;-0.83;74.96
60087;BME280;45960;53.630;55.972;2023-02-21T05:26:45;98250.25;;;-0.82;74.88
60087;BME280;45960;53.630;55.972;2023-02-21T05:27:46;98244.94;;;-0.81;75.02
60087;BME280;45960;53.630;55.972;2023-02-21T05:28:48;98238.59;;;-0.77;74.87
60087;BME280;45960;53.630;55.972;2023-02-21T05:29:51;98242.69;;;-0.71;74.93
60087;BME280;45960;53.630;55.972;2023-02-21T05:30:53;98244.28;;;-0.69;74.86
60087;BME280;45960;53.630;55.972;2023-02-21T05:31:55;98240.72;;;-0.68;74.61
60087;BME280;45960;53.630;55.972;2023-02-21T05:32:56;98234.59;;;-0.66;74.75
60087;BME280;45960;53.630;55.972;2023-02-21T05:33:57;98239.81;;;-0.66;74.87
60087;BME280;45960;53.630;55.972;2023-02-21T05:34:58;98231.19;;;-0.69;74.88
60087;BME280;45960;53.630;55.972;2023-02-21T05:35:59;98232.69;;;-0.64;74.83
60087;BME280;45960;53.630;55.972;2023-02-21T05:37:00;98229.00;;;-0.60;74.85
60087;BME280;45960;53.630;55.972;2023-02-21T05:38:01;98235.78;;;-0.56;74.90
60087;BME280;45960;53.630;55.972;2023-02-21T05:39:03;98232.25;;;-0.55;74.75
60087;BME280;45960;53.630;55.972;2023-02-21T05:40:04;98227.91;;;-0.56;74.86
60087;BME280;45960;53.630;55.972;2023-02-21T05:41:06;98234.09;;;-0.57;74.75
60087;BME280;45960;53.630;55.972;2023-02-21T05:42:07;98230.69;;;-0.59;74.79
60087;BME280;45960;53.630;55.972;2023-02-21T05:43:08;98227.00;;;-0.55;74.49
60087;BME280;45960;53.630;55.972;2023-02-21T05:44:09;98221.59;;;-0.52;74.53
60087;BME280;45960;53.630;55.972;2023-02-21T05:45:10;98223.28;;;-0.51;74.74
60087;BME280;45960;53.630;55.972;2023-02-21T05:46:27;98225.28;;;-0.56;74.75
60087;BME280;45960;53.630;55.972;2023-02-21T05:47:28;98229.00;;;-0.60;74.81
60087;BME280;45960;53.630;55.972;2023-02-21T05:48:29;98225.28;;;-0.56;74.79
60087;BME280;45960;53.630;55.972;2023-02-21T05:49:30;98227.00;;;-0.55;74.96
60087;BME280;45960;53.630;55.972;2023-02-21T05:50:31;98225.16;;;-0.53;75.16
60087;BME280;45960;53.630;55.972;2023-02-21T05:51:35;98216.50;;;-0.55;75.02
60087;BME280;45960;53.630;55.972;2023-02-21T05:52:36;98218.28;;;-0.56;75.36
60087;BME280;45960;53.630;55.972;2023-02-21T05:53:37;98216.50;;;-0.55;75.15
60087;BME280;45960;53.630;55.972;2023-02-21T05:54:38;98218.13;;;-0.53;75.11
60087;BME280;45960;53.630;55.972;2023-02-21T05:55:39;98216.19;;;-0.49;75.25
60087;BME280;45960;53.630;55.972;2023-02-21T05:56:42;98214.16;;;-0.44;75.01
60087;BME280;45960;53.630;55.972;2023-02-21T05:57:44;98210.44;;;-0.40;74.69
60087;BME280;45960;53.630;55.972;2023-02-21T05:58:45;98217.22;;;-0.36;74.81
60087;BME280;45960;53.630;55.972;2023-02-21T05:59:46;98215.19;;;-0.31;74.73
60087;BME280;45960;53.630;55.972;2023-02-21T06:00:48;98218.56;;;-0.29;74.69
60087;BME280;45960;53.630;55.972;2023-02-21T06:01:49;98220.09;;;-0.25;74.60
60087;BME280;45960;53.630;55.972;2023-02-21T06:02:51;98214.69;;;-0.21;74.43
60087;BME280;45960;53.630;55.972;2023-02-21T06:03:52;98210.28;;;-0.21;74.53
60087;BME280;45960;53.630;55.972;2023-02-21T06:04:53;98214.53;;;-0.18;74.68
60087;BME280;45960;53.630;55.972;2023-02-21T06:05:54;98214.34;;;-0.15;74.41
60087;BME280;45960;53.630;55.972;2023-02-21T06:06:55;98214.19;;;-0.12;74.47
60087;BME280;45960;53.630;55.972;2023-02-21T06:07:58;98210.47;;;-0.08;74.65
60087;BME280;45960;53.630;55.972;2023-02-21T06:08:59;98208.59;;;-0.06;74.44
60087;BME280;45960;53.630;55.972;2023-02-21T06:10:00;98206.72;;;-0.04;74.59
60087;BME280;45960;53.630;55.972;2023-02-21T06:11:02;98205.97;;;-0.06;74.25
60087;BME280;45960;53.630;55.972;2023-02-21T06:12:03;98208.59;;;-0.06;74.39
60087;BME280;45960;53.630;55.972;2023-02-21T06:13:04;98203.50;;;-0.09;74.49
60087;BME280;45960;53.630;55.972;2023-02-21T06:14:07;98210.47;;;-0.08;74.48
60087;BME280;45960;53.630;55.972;2023-02-21T06:15:09;98203.34;;;-0.06;74.48
60087;BME280;45960;53.630;55.972;2023-02-21T06:16:10;98194.56;;;-0.05;74.25
60087;BME280;45960;53.630;55.972;2023-02-21T06:17:11;98204.88;;;-0.02;74.41
60087;BME280;45960;53.630;55.972;2023-02-21T06:18:13;98194.56;;;-0.05;74.40
60087;BME280;45960;53.630;55.972;2023-02-21T06:19:16;98197.25;;;-0.07;74.22
60087;BME280;45960;53.630;55.972;2023-02-21T06:20:17;98200.13;;;-0.11;74.45
60087;BME280;45960;53.630;55.972;2023-02-21T06:21:19;98205.53;;;-0.14;74.37
60087;BME280;45960;53.630;55.972;2023-02-21T06:22:20;98201.22;;;-0.15;74.53
60087;BME280;45960;53.630;55.972;2023-02-21T06:23:21;98190.72;;;-0.15;74.43
60087;BME280;45960;53.630;55.972;2023-02-21T06:24:22;98198.44;;;-0.12;74.29
60087;BME280;45960;53.630;55.972;2023-02-21T06:25:23;98193.94;;;-0.10;74.60
60087;BME280;45960;53.630;55.972;2023-02-21T06:26:24;98191.16;;;-0.07;74.59
60087;BME280;45960;53.630;55.972;2023-02-21T06:27:25;98189.47;;;-0.08;74.60
60087;BME280;45960;53.630;55.972;2023-02-21T06:28:27;98181.00;;;-0.13;74.21
60087;BME280;45960;53.630;55.972;2023-02-21T06:29:29;98182.69;;;-0.12;74.51
60087;BME280;45960;53.630;55.972;2023-02-21T06:30:30;98186.25;;;-0.13;74.59
60087;BME280;45960;53.630;55.972;2023-02-21T06:31:31;98181.00;;;-0.13;74.45
60087;BME280;45960;53.630;55.972;2023-02-21T06:32:32;98182.69;;;-0.12;74.51
60087;BME280;45960;53.630;55.972;2023-02-21T06:33:33;98184.38;;;-0.11;74.88
60087;BME280;45960;53.630;55.972;2023-02-21T06:34:34;98182.50;;;-0.09;74.72
60087;BME280;45960;53.630;55.972;2023-02-21T06:35:35;98188.44;;;-0.06;74.98
60087;BME280;45960;53.630;55.972;2023-02-21T06:36:36;98181.50;;;-0.07;74.92
60087;BME280;45960;53.630;55.972;2023-02-21T06:37:38;98184.06;;;-0.05;74.93